Time;durP1;ratioP1;P1;durP2;ratioP2;P2;SDS_P1;SDS_P2;PMS_P1;PMS_P2;Temp;Humidity;BMP_temperature;BMP_pressure;BME280_temperature;BME280_humidity;BME280_pressure;Samples;Min_cycle;Max_cycle;Signal;HPM_P1;HPM_P2
2021/04/13 00:00:05;;;;;;;7.50;5.35;;;;;;;3.56;69.33;98730.84;10446474;28;20037;-82
2021/04/13 00:05:46;;;;;;;7.28;5.13;;;;;;;3.52;69.14;98726.91;10453692;28;20037;-82
2021/04/13 00:11:09;;;;;;;9.20;5.15;;;;;;;3.53;69.19;98717.34;10445028;28;20103;-82
2021/04/13 00:16:30;;;;;;;7.10;4.50;;;;;;;3.57;69.38;98720.53;10444723;28;20048;-82
2021/04/13 00:21:50;;;;;;;7.47;4.53;;;;;;;3.55;69.42;98718.31;10459213;28;20048;-82
2021/04/13 00:27:15;;;;;;;6.47;4.38;;;;;;;3.58;68.98;98714.50;10431509;28;20045;-82
2021/04/13 00:32:37;;;;;;;;;;;;;;;3.60;68.69;98720.25;10432066;28;20041;-82
2021/04/13 00:38:31;;;;;;;7.38;3.60;;;;;;;3.60;69.25;98714.72;10458788;28;19947;-82
2021/04/13 00:43:58;;;;;;;7.82;4.40;;;;;;;3.64;68.08;98708.91;10472093;28;20067;-82
2021/04/13 00:49:21;;;;;;;5.55;3.97;;;;;;;3.65;68.47;98702.84;10432376;28;20393;-82
2021/04/13 00:54:53;;;;;;;7.82;4.18;;;;;;;3.68;69.27;98709.34;10461829;28;20049;-83
2021/04/13 01:00:48;;;;;;;6.93;3.90;;;;;;;3.69;68.72;98699.78;10445387;28;20040;-82
2021/04/13 01:06:08;;;;;;;8.82;4.68;;;;;;;3.75;68.86;98703.19;10461595;28;20048;-82
2021/04/13 01:11:30;;;;;;;9.68;6.22;;;;;;;3.81;68.67;98700.38;10445753;28;20045;-82
2021/04/13 01:16:56;;;;;;;8.45;4.00;;;;;;;3.84;68.72;98705.56;10460949;28;20507;-82
2021/04/13 01:22:45;;;;;;;5.90;3.97;;;;;;;3.83;68.43;98708.88;10459710;28;20029;-82
2021/04/13 01:28:18;;;;;;;8.13;3.70;;;;;;;3.85;69.44;98714.59;10449791;28;20051;-82
2021/04/13 01:33:52;;;;;;;7.55;4.30;;;;;;;3.76;68.91;98710.22;10461523;28;20415;-82
2021/04/13 01:39:17;;;;;;;5.78;3.88;;;;;;;3.67;68.97;98722.41;10464909;28;20041;-82
2021/04/13 01:44:48;;;;;;;6.63;3.88;;;;;;;3.54;68.41;98714.06;10448271;28;20061;-82
2021/04/13 01:50:15;;;;;;;6.70;4.22;;;;;;;3.51;68.70;98722.66;10460399;28;20067;-83
2021/04/13 01:55:36;;;;;;;7.28;4.63;;;;;;;3.51;68.58;98714.38;10462082;28;20053;-83
2021/04/13 02:01:23;;;;;;;7.43;3.67;;;;;;;3.50;69.24;98716.38;10447046;28;20044;-82
2021/04/13 02:08:01;;;;;;;7.28;4.35;;;;;;;3.51;69.11;98715.13;10464046;28;20048;-83
2021/04/13 02:13:34;;;;;;;8.30;4.65;;;;;;;3.48;69.13;98707.88;10459202;28;20049;-82
2021/04/13 02:18:54;;;;;;;6.25;3.92;;;;;;;3.45;68.90;98717.19;10416414;28;20053;-83
2021/04/13 02:24:20;;;;;;;7.43;4.38;;;;;;;3.48;69.05;98712.66;10461519;28;20052;-83
2021/04/13 02:29:43;;;;;;;5.53;3.15;;;;;;;3.47;68.39;98714.66;10475878;28;20045;-82
2021/04/13 02:35:24;;;;;;;5.95;2.67;;;;;;;3.43;68.46;98728.03;10451507;28;20044;-82
2021/04/13 02:41:02;;;;;;;7.95;3.60;;;;;;;3.36;67.85;98728.59;10448186;28;20057;-83
2021/04/13 02:46:27;;;;;;;5.70;3.15;;;;;;;3.34;68.35;98731.16;10462321;28;20049;-82
2021/04/13 02:52:06;;;;;;;5.57;3.25;;;;;;;3.33;67.84;98729.66;10463145;28;20067;-83
2021/04/13 02:57:38;;;;;;;5.20;3.75;;;;;;;3.30;68.02;98725.94;10438562;28;20053;-83
2021/04/13 03:03:32;;;;;;;7.18;3.63;;;;;;;3.33;68.53;98726.91;10428244;28;20049;-82
2021/04/13 03:08:52;;;;;;;4.93;3.47;;;;;;;3.35;68.38;98732.63;10431423;28;20111;-82
2021/04/13 03:14:13;;;;;;;5.10;2.97;;;;;;;3.36;68.00;98734.88;10428462;28;20041;-83
2021/04/13 03:19:33;;;;;;;6.70;3.30;;;;;;;3.34;68.15;98739.44;10413782;28;20050;-84
2021/04/13 03:24:53;;;;;;;6.80;3.80;;;;;;;3.34;68.28;98742.19;10427663;28;20455;-82
2021/04/13 03:30:26;;;;;;;5.60;3.38;;;;;;;3.35;68.10;98749.94;10442098;28;20045;-83
2021/04/13 03:35:45;;;;;;;8.70;5.00;;;;;;;3.37;68.05;98746.66;10441258;28;20041;-82
2021/04/13 03:41:15;;;;;;;6.40;3.35;;;;;;;3.40;68.10;98737.34;10426301;28;20041;-83
2021/04/13 03:46:37;;;;;;;5.88;3.15;;;;;;;3.37;67.81;98735.63;10400912;28;20112;-83
2021/04/13 03:52:11;;;;;;;5.47;2.72;;;;;;;3.35;67.71;98732.63;10427743;28;20046;-83
2021/04/13 03:57:34;;;;;;;7.90;2.80;;;;;;;3.33;67.68;98721.38;10452806;28;20057;-83
2021/04/13 04:02:54;;;;;;;6.25;2.38;;;;;;;3.32;67.52;98726.16;10442124;28;20105;-84
2021/04/13 04:08:29;;;;;;;5.13;2.55;;;;;;;3.27;67.78;98735.25;10411668;28;20041;-84
2021/04/13 04:13:52;;;;;;;5.57;2.45;;;;;;;3.24;67.42;98735.56;10417558;28;20053;-83
2021/04/13 04:19:23;;;;;;;4.57;2.30;;;;;;;3.23;67.87;98740.31;10405776;28;20041;-80
2021/04/13 04:24:43;;;;;;;4.93;2.60;;;;;;;3.21;67.44;98745.63;10432070;28;20052;-82
2021/04/13 04:30:08;;;;;;;4.55;2.78;;;;;;;3.24;67.69;98741.06;10404598;28;20045;-82
2021/04/13 04:35:41;;;;;;;;;;;;;;;3.32;67.57;98747.50;10431158;28;20064;-79
2021/04/13 04:41:11;;;;;;;5.38;2.60;;;;;;;3.44;67.16;98751.59;10416206;28;19921;-81
2021/04/13 04:47:32;;;;;;;7.65;2.58;;;;;;;3.67;66.88;98750.03;10401024;28;20412;-81
2021/04/13 04:52:51;;;;;;;4.28;2.55;;;;;;;3.72;67.00;98751.94;10442266;28;20045;-82
2021/04/13 04:58:11;;;;;;;6.43;3.15;;;;;;;3.71;67.15;98763.53;10421306;28;20045;-82
2021/04/13 05:03:31;;;;;;;6.55;3.08;;;;;;;3.66;66.56;98772.63;10399406;28;20060;-83
2021/04/13 05:08:54;;;;;;;6.25;3.40;;;;;;;3.70;66.28;98779.34;10407882;28;20388;-82
2021/04/13 05:14:14;;;;;;;5.45;3.10;;;;;;;3.84;66.06;98785.66;10394741;28;20358;-81
2021/04/13 05:19:34;;;;;;;6.13;3.83;;;;;;;4.17;66.28;98781.69;10391425;28;20053;-82
2021/04/13 05:24:54;;;;;;;6.75;3.70;;;;;;;4.69;66.25;98796.16;10395622;28;20046;-83
2021/04/13 05:30:20;;;;;;;5.28;3.50;;;;;;;5.02;64.91;98800.31;10410276;28;20045;-82
2021/04/13 05:35:40;;;;;;;9.45;4.07;;;;;;;4.96;64.66;98802.47;10393592;28;20041;-82
2021/04/13 05:41:05;;;;;;;5.65;3.42;;;;;;;4.97;64.81;98803.94;10439647;28;20042;-82
2021/04/13 05:46:25;;;;;;;7.78;3.67;;;;;;;5.09;64.61;98805.97;10385058;28;20068;-81
2021/04/13 05:51:45;;;;;;;8.30;4.43;;;;;;;5.40;64.09;98809.91;10410615;28;20451;-81
2021/04/13 05:57:06;;;;;;;10.15;4.43;;;;;;;5.66;64.16;98814.66;10394827;28;20064;-82
2021/04/13 06:02:28;;;;;;;7.90;4.20;;;;;;;5.92;63.60;98811.09;10378273;28;20045;-79
2021/04/13 06:07:49;;;;;;;5.57;3.72;;;;;;;6.36;63.32;98808.56;10374802;28;20396;-79
2021/04/13 06:13:11;;;;;;;5.15;3.65;;;;;;;6.53;62.75;98822.03;10388197;28;20045;-80
2021/04/13 06:18:30;;;;;;;5.30;3.60;;;;;;;6.56;62.27;98824.50;10361399;28;20045;-79
2021/04/13 06:23:51;;;;;;;6.63;3.63;;;;;;;6.78;62.28;98825.22;10387786;28;20045;-80
2021/04/13 06:29:11;;;;;;;6.53;3.80;;;;;;;7.58;62.04;98826.09;10374345;28;20473;-80
2021/04/13 06:34:30;;;;;;;6.32;3.55;;;;;;;8.49;61.27;98824.88;10408697;28;20049;-79
2021/04/13 06:39:50;;;;;;;4.13;3.70;;;;;;;9.37;59.98;98825.94;10395734;28;20041;-80
2021/04/13 06:45:48;;;;;;;6.07;3.58;;;;;;;10.53;59.31;98832.50;10394169;28;20164;-79
2021/04/13 06:51:40;;;;;;;8.88;4.15;;;;;;;12.39;57.21;98843.38;10399054;28;20045;-79
2021/04/13 06:57:29;;;;;;;3.85;2.85;;;;;;;14.69;54.49;98853.91;10387575;28;20475;-79
2021/04/13 07:02:55;;;;;;;4.25;2.78;;;;;;;16.10;49.57;98852.66;10411598;28;20053;-79
2021/04/13 07:08:40;;;;;;;4.50;3.40;;;;;;;17.15;46.37;98849.97;10408634;28;20042;-79
2021/04/13 07:14:18;;;;;;;4.78;3.35;;;;;;;18.90;42.66;98848.44;10395867;28;20045;-80
2021/04/13 07:19:43;;;;;;;5.18;2.83;;;;;;;22.08;38.96;98843.22;10421129;28;20382;-80
2021/04/13 07:25:37;;;;;;;3.30;2.55;;;;;;;24.07;30.56;98841.81;10394047;28;20046;-80
2021/04/13 07:31:01;;;;;;;;;;;;;;;23.32;27.85;98845.00;10411311;28;20045;-79
2021/04/13 07:36:24;;;;;;;3.72;2.22;;;;;;;23.69;27.44;98847.72;10391302;28;19921;-78
2021/04/13 07:41:47;;;;;;;;;;;;;;;28.55;20.52;98854.88;10432233;28;20049;-79
2021/04/13 07:47:37;;;;;;;2.72;1.67;;;;;;;34.55;16.21;98852.31;10419370;28;19920;-76
2021/04/13 07:53:00;;;;;;;4.10;2.17;;;;;;;32.50;12.90;98860.09;10438359;28;20037;-79
2021/04/13 07:59:17;;;;;;;4.20;2.30;;;;;;;26.98;15.29;98854.34;10446719;28;20045;-82
2021/04/13 08:04:40;;;;;;;2.95;1.92;;;;;;;22.57;17.70;98863.63;10332962;28;20054;-79
2021/04/13 08:10:28;;;;;;;2.22;2.00;;;;;;;20.62;19.86;98861.13;10318559;28;20046;-83
2021/04/13 08:15:54;;;;;;;4.55;2.25;;;;;;;23.39;21.15;98846.66;10305894;28;20065;-79
2021/04/13 08:21:31;;;;;;;2.58;2.03;;;;;;;24.21;18.40;98850.78;10331638;28;20098;-80
2021/04/13 08:26:52;;;;;;;4.00;1.90;;;;;;;24.34;21.00;98849.09;10304342;28;20054;-74
2021/04/13 08:32:57;;;;;;;4.05;2.03;;;;;;;25.33;16.22;98861.91;10336046;28;20049;-73
2021/04/13 08:38:32;;;;;;;4.35;1.60;;;;;;;27.40;19.01;98851.59;10458544;28;20041;-73
2021/04/13 08:44:17;;;;;;;6.72;2.35;;;;;;;33.08;12.92;98861.34;10458202;28;20094;-74
2021/04/13 08:50:01;;;;;;;3.28;1.50;;;;;;;29.80;12.38;98857.75;10443601;28;20037;-75
2021/04/13 08:55:50;;;;;;;6.30;3.75;;;;;;;33.86;11.29;98862.31;10451261;28;20053;-75
2021/04/13 09:01:37;;;;;;;4.18;3.25;;;;;;;34.97;10.48;98862.69;10432596;28;20067;-74
2021/04/13 09:07:00;;;;;;;3.72;2.08;;;;;;;34.09;10.24;98867.94;10428491;28;20045;-75
2021/04/13 09:12:30;;;;;;;5.22;3.78;;;;;;;33.54;9.65;98869.06;10428337;28;20494;-75
2021/04/13 09:18:35;;;;;;;4.43;3.05;;;;;;;31.97;10.34;98863.06;10428237;28;20043;-78
2021/04/13 09:24:21;;;;;;;17.08;11.45;;;;;;;28.61;11.67;98868.63;10416517;28;20053;-77
2021/04/13 09:29:46;;;;;;;15.63;10.73;;;;;;;24.77;13.51;98873.91;10430395;28;20044;-76
2021/04/13 09:35:15;;;;;;;7.53;4.28;;;;;;;23.85;15.17;98873.19;10414104;28;20506;-74
2021/04/13 09:41:12;;;;;;;2.95;2.58;;;;;;;21.54;16.61;98863.06;10441394;28;20045;-75
2021/04/13 09:46:59;;;;;;;5.07;3.33;;;;;;;19.34;18.76;98850.00;10422375;28;20547;-74
2021/04/13 09:52:48;;;;;;;4.43;3.13;;;;;;;19.79;19.41;98854.38;10441775;28;20045;-75
2021/04/13 09:58:27;;;;;;;3.75;3.42;;;;;;;20.96;19.12;98847.78;10430071;28;20476;-74
2021/04/13 10:04:28;;;;;;;4.97;3.90;;;;;;;21.46;18.40;98842.09;10415790;28;20073;-75
2021/04/13 10:09:48;;;;;;;4.43;3.47;;;;;;;19.93;19.37;98843.69;10416394;28;20088;-74
2021/04/13 10:15:32;;;;;;;3.35;3.05;;;;;;;21.45;19.19;98823.59;10420882;28;20052;-74
2021/04/13 10:21:26;;;;;;;3.35;2.42;;;;;;;23.02;17.80;98836.13;10462399;28;20041;-76
2021/04/13 10:27:07;;;;;;;2.72;2.50;;;;;;;23.83;17.38;98835.31;10437983;28;20095;-76
2021/04/13 10:32:57;;;;;;;3.72;2.53;;;;;;;25.21;16.26;98830.88;10432710;28;20536;-76
2021/04/13 10:39:05;;;;;;;3.83;2.70;;;;;;;22.32;16.73;98829.97;10439228;28;20094;-76
2021/04/13 10:45:21;;;;;;;4.07;2.65;;;;;;;18.72;19.82;98830.50;10413365;28;20091;-76
2021/04/13 10:51:19;;;;;;;5.25;2.45;;;;;;;15.97;19.96;98837.09;10457232;28;20091;-76
2021/04/13 10:57:00;;;;;;;3.00;2.25;;;;;;;14.17;22.33;98829.19;10433402;28;20049;-75
2021/04/13 11:02:57;;;;;;;4.38;2.50;;;;;;;14.41;22.97;98824.56;10458848;28;20395;-75
2021/04/13 11:08:46;;;;;;;4.13;2.80;;;;;;;14.71;23.03;98823.13;10439067;28;20049;-76
2021/04/13 11:14:38;;;;;;;3.03;2.38;;;;;;;13.59;23.53;98804.00;10442390;28;20057;-75
2021/04/13 11:20:43;;;;;;;3.58;2.50;;;;;;;13.21;24.85;98799.84;10435921;28;20040;-75
2021/04/13 11:26:51;;;;;;;3.43;2.17;;;;;;;14.17;25.70;98801.84;10445474;28;20064;-75
2021/04/13 11:32:58;;;;;;;3.33;2.42;;;;;;;15.21;24.74;98799.75;10456887;28;20083;-78
2021/04/13 11:39:18;;;;;;;3.38;2.55;;;;;;;15.77;24.33;98794.28;10438259;28;20045;-79
2021/04/13 11:45:24;;;;;;;3.20;2.30;;;;;;;16.99;24.00;98793.34;10433584;28;20041;-78
2021/04/13 11:51:24;;;;;;;3.28;2.30;;;;;;;17.90;23.28;98785.81;10449144;28;20044;-78
2021/04/13 11:56:58;;;;;;;2.53;2.20;;;;;;;18.48;22.64;98776.22;10418364;28;20771;-79
2021/04/13 12:02:30;;;;;;;2.35;2.10;;;;;;;17.80;21.29;98771.88;10421526;28;20045;-75
2021/04/13 12:07:51;;;;;;;2.92;2.00;;;;;;;16.61;22.32;98774.84;10391247;28;20088;-76
2021/04/13 12:13:10;;;;;;;2.40;2.20;;;;;;;15.90;23.10;98770.47;10389350;28;20722;-74
2021/04/13 12:18:36;;;;;;;3.03;2.17;;;;;;;14.38;23.60;98769.56;10402745;28;20076;-75
2021/04/13 12:24:01;;;;;;;3.25;2.20;;;;;;;13.74;24.32;98767.25;10432398;28;20103;-75
2021/04/13 12:29:27;;;;;;;;;;;;;;;13.28;25.48;98756.19;10414275;28;20476;-74
2021/04/13 12:34:49;;;;;;;2.83;2.00;;;;;;;13.60;25.35;98755.72;10401807;28;20535;-74
2021/04/13 12:40:21;;;;;;;2.17;1.90;;;;;;;14.05;24.85;98742.03;10406609;28;20066;-74
2021/04/13 12:45:47;;;;;;;2.15;1.50;;;;;;;13.97;24.85;98725.38;10439410;28;20120;-75
2021/04/13 12:51:10;;;;;;;2.85;1.85;;;;;;;13.42;25.11;98727.13;10427798;28;20037;-74
2021/04/13 12:56:30;;;;;;;3.50;1.87;;;;;;;13.04;25.75;98727.09;10456527;28;20098;-75
2021/04/13 13:01:50;;;;;;;3.33;2.30;;;;;;;13.25;25.87;98718.88;10442528;28;20049;-75
2021/04/13 13:07:21;;;;;;;3.42;2.35;;;;;;;13.56;25.92;98723.84;10414549;28;20048;-74
2021/04/13 13:12:41;;;;;;;2.45;2.00;;;;;;;14.06;25.32;98723.13;10414845;28;20111;-74
2021/04/13 13:18:19;;;;;;;2.65;2.08;;;;;;;14.08;25.60;98709.97;10441829;28;20048;-74
2021/04/13 13:23:44;;;;;;;2.65;1.80;;;;;;;14.10;25.25;98706.59;10437445;28;20404;-74
2021/04/13 13:29:03;;;;;;;2.22;2.00;;;;;;;13.61;25.09;98698.31;10386764;28;20045;-75
2021/04/13 13:34:23;;;;;;;2.65;1.40;;;;;;;13.56;25.41;98695.81;10400312;28;20447;-75
2021/04/13 13:39:42;;;;;;;2.38;1.75;;;;;;;13.58;25.62;98693.13;10400027;28;20042;-74
2021/04/13 13:45:03;;;;;;;2.03;1.42;;;;;;;13.64;25.41;98696.38;10405840;28;20047;-74
2021/04/13 13:50:37;;;;;;;1.50;1.40;;;;;;;13.88;25.40;98680.50;10413909;28;20045;-75
2021/04/13 13:56:03;;;;;;;2.42;1.58;;;;;;;13.78;25.33;98688.22;10414415;28;20057;-75
2021/04/13 14:01:26;;;;;;;4.57;1.80;;;;;;;13.84;25.36;98680.97;10423035;28;20408;-75
2021/04/13 14:06:47;;;;;;;2.88;2.00;;;;;;;13.76;25.34;98680.38;10426994;28;20056;-75
2021/04/13 14:12:27;;;;;;;2.92;1.83;;;;;;;13.63;25.25;98680.88;10426422;28;20049;-75
2021/04/13 14:18:08;;;;;;;2.63;1.13;;;;;;;13.62;25.58;98677.34;10426765;28;20042;-75
2021/04/13 14:23:28;;;;;;;3.17;1.23;;;;;;;13.38;25.36;98673.53;10429093;28;20045;-74
2021/04/13 14:29:23;;;;;;;3.25;1.85;;;;;;;12.98;25.48;98662.19;10426368;28;20042;-75
2021/04/13 14:34:43;;;;;;;1.70;1.35;;;;;;;12.66;26.12;98661.31;10443021;28;20041;-75
2021/04/13 14:40:12;;;;;;;1.90;1.55;;;;;;;12.11;25.98;98668.38;10412409;28;20052;-75
2021/04/13 14:45:34;;;;;;;2.42;1.98;;;;;;;11.73;26.06;98672.47;10439182;28;20049;-74
2021/04/13 14:50:54;;;;;;;2.63;1.90;;;;;;;11.72;26.76;98659.81;10429005;28;20041;-75
2021/04/13 14:56:14;;;;;;;2.28;1.73;;;;;;;11.99;26.93;98662.59;10447483;28;20053;-75
2021/04/13 15:01:34;;;;;;;2.88;1.08;;;;;;;12.19;26.35;98659.88;10433455;28;20041;-74
2021/04/13 15:06:56;;;;;;;2.50;0.90;;;;;;;12.40;26.34;98665.66;10446751;28;20049;-75
2021/04/13 15:12:16;;;;;;;2.22;0.82;;;;;;;12.31;26.42;98650.31;10433019;28;20048;-75
2021/04/13 15:17:36;;;;;;;1.92;0.70;;;;;;;11.91;26.67;98652.84;10416928;28;20404;-75
2021/04/13 15:22:56;;;;;;;1.73;0.70;;;;;;;11.39;26.76;98662.13;10411898;28;20439;-74
2021/04/13 15:28:16;;;;;;;5.13;1.13;;;;;;;11.21;27.23;98668.34;10432291;28;20052;-76
2021/04/13 15:33:45;;;;;;;2.83;0.98;;;;;;;11.02;26.98;98666.16;10432441;28;20041;-76
2021/04/13 15:39:09;;;;;;;1.88;0.68;;;;;;;10.97;27.21;98650.38;10454692;28;20067;-75
2021/04/13 15:44:36;;;;;;;2.20;1.20;;;;;;;10.64;27.59;98652.59;10457242;28;20047;-76
2021/04/13 15:49:56;;;;;;;1.63;0.65;;;;;;;10.45;27.82;98648.31;10451655;28;20040;-75
2021/04/13 15:55:15;;;;;;;1.45;0.75;;;;;;;10.21;28.22;98649.78;10486652;28;20057;-77
2021/04/13 16:00:35;;;;;;;1.88;0.55;;;;;;;10.06;28.28;98652.72;10472045;28;20045;-75
2021/04/13 16:05:55;;;;;;;2.58;0.70;;;;;;;10.00;28.59;98646.63;10471939;28;20045;-75
2021/04/13 16:11:15;;;;;;;2.10;1.00;;;;;;;9.90;28.69;98646.50;10458100;28;20040;-75
2021/04/13 16:16:35;;;;;;;1.90;0.70;;;;;;;9.81;28.60;98647.13;10471564;28;20044;-75
2021/04/13 16:21:54;;;;;;;1.45;0.65;;;;;;;9.75;29.71;98655.75;10443869;28;20036;-77
2021/04/13 16:27:14;;;;;;;2.85;0.95;;;;;;;9.62;29.48;98649.69;10471257;28;20036;-76
2021/04/13 16:32:35;;;;;;;2.33;0.88;;;;;;;9.45;29.70;98648.28;10444786;28;20047;-75
2021/04/13 16:37:55;;;;;;;2.65;0.90;;;;;;;9.22;30.31;98649.72;10449018;28;20507;-75
2021/04/13 16:43:31;;;;;;;3.22;0.90;;;;;;;8.96;30.70;98653.72;10456765;28;20044;-74
2021/04/13 16:48:57;;;;;;;1.52;0.93;;;;;;;8.74;30.95;98652.50;10470345;28;20053;-75
2021/04/13 16:54:18;;;;;;;3.25;1.10;;;;;;;8.57;31.17;98644.72;10460255;28;20060;-82
2021/04/13 16:59:39;;;;;;;2.45;0.93;;;;;;;8.39;33.23;98645.88;10619735;22;20058;-82
2021/04/13 17:05:12;;;;;;;2.17;0.70;;;;;;;8.20;32.25;98637.88;10789404;22;20055;-82
2021/04/13 17:10:50;;;;;;;3.73;0.60;;;;;;;8.01;32.00;98632.75;11519669;22;20492;-80
2021/04/13 17:16:11;;;;;;;2.58;0.63;;;;;;;7.94;32.31;98647.38;10411224;28;20049;-80
2021/04/13 17:21:37;;;;;;;3.65;1.05;;;;;;;7.79;33.60;98639.00;10469781;28;20048;-79
2021/04/13 17:26:59;;;;;;;2.08;0.73;;;;;;;7.62;33.68;98642.31;10468020;28;20041;-81
2021/04/13 17:32:52;;;;;;;3.30;0.90;;;;;;;7.53;33.44;98648.41;10487171;28;20048;-80
2021/04/13 17:38:44;;;;;;;3.58;0.60;;;;;;;7.34;33.65;98646.00;10455692;28;20044;-79
2021/04/13 17:44:31;;;;;;;5.43;0.88;;;;;;;7.17;35.50;98644.44;10481640;28;20048;-82
2021/04/13 17:55:57;;;;;;;4.13;1.20;;;;;;;7.01;34.70;98642.16;10301709;28;20035;-83
2021/04/13 18:01:17;;;;;;;6.80;4.20;;;;;;;6.91;35.14;98653.03;10240631;28;20054;-76
2021/04/13 18:06:59;;;;;;;3.35;1.40;;;;;;;6.75;35.78;98649.44;10239206;28;20091;-76
2021/04/13 18:12:32;;;;;;;3.95;1.40;;;;;;;6.68;36.12;98655.72;10225627;28;20402;-76
2021/04/13 18:17:58;;;;;;;3.22;1.25;;;;;;;6.59;37.24;98664.53;10225840;29;20055;-76
2021/04/13 18:23:24;;;;;;;4.13;1.42;;;;;;;6.51;37.34;98670.03;10226010;28;20387;-75
2021/04/13 18:29:03;;;;;;;5.65;1.70;;;;;;;6.44;37.10;98673.50;10233017;29;20047;-75
2021/04/13 18:34:38;;;;;;;4.72;0.90;;;;;;;6.37;37.34;98676.97;10233414;29;20123;-76
2021/04/13 18:40:19;;;;;;;4.88;1.33;;;;;;;6.28;37.93;98694.09;10259539;28;20103;-75
2021/04/13 18:45:39;;;;;;;3.38;1.20;;;;;;;6.15;38.26;98681.03;10234175;29;20059;-75
2021/04/13 18:51:21;;;;;;;5.50;1.63;;;;;;;6.15;38.18;98688.63;10239906;28;20371;-75
2021/04/13 18:57:02;;;;;;;5.43;1.95;;;;;;;6.15;38.28;98688.63;10339986;28;20042;-75
2021/04/13 19:02:40;;;;;;;4.38;1.75;;;;;;;6.13;38.73;98691.19;10312828;28;20398;-75
2021/04/13 19:08:36;;;;;;;4.55;1.65;;;;;;;6.13;38.91;98688.41;10314808;28;20042;-75
2021/04/13 19:14:02;;;;;;;4.13;1.85;;;;;;;6.10;39.23;98693.03;10316953;28;20046;-75
2021/04/13 19:19:32;;;;;;;3.97;1.67;;;;;;;6.12;39.28;98692.47;10311539;28;20061;-76
2021/04/13 19:25:24;;;;;;;4.90;2.17;;;;;;;6.12;39.53;98684.16;10311062;28;20050;-75
2021/04/13 19:30:47;;;;;;;7.15;2.70;;;;;;;6.12;39.72;98698.03;10324400;28;20054;-74
2021/04/13 19:36:49;;;;;;;5.50;1.83;;;;;;;6.10;39.89;98687.47;10323265;28;20520;-74
2021/04/13 19:42:15;;;;;;;7.07;2.45;;;;;;;6.00;40.03;98684.44;10265881;28;20054;-75
2021/04/13 19:47:45;;;;;;;6.30;2.53;;;;;;;5.93;40.58;98685.13;10323830;28;20046;-75
2021/04/13 19:53:10;;;;;;;4.68;2.03;;;;;;;5.84;41.31;98682.78;10322668;28;20055;-74
2021/04/13 19:58:32;;;;;;;6.30;2.85;;;;;;;5.79;41.42;98675.38;10323418;28;20050;-76
2021/04/13 20:03:58;;;;;;;8.93;2.97;;;;;;;5.67;41.86;98685.19;10323511;28;20437;-76
2021/04/13 20:09:20;;;;;;;4.93;2.58;;;;;;;5.59;42.01;98690.66;10323392;28;20050;-75
2021/04/13 20:14:52;;;;;;;5.40;2.65;;;;;;;5.49;42.80;98686.84;10309028;28;20051;-75
2021/04/13 20:20:42;;;;;;;6.72;2.65;;;;;;;5.43;42.44;98684.22;10323742;28;20046;-78
2021/04/13 20:26:23;;;;;;;10.88;2.70;;;;;;;5.41;43.39;98699.91;10308261;28;20046;-78
2021/04/13 20:31:51;;;;;;;6.90;2.60;;;;;;;5.33;43.18;98696.31;10308712;28;20038;-77
2021/04/13 20:43:08;;;;;;;8.30;3.22;;;;;;;5.26;44.17;98696.94;10323954;28;20046;-76
2021/04/13 20:48:47;;;;;;;5.60;2.45;;;;;;;5.18;44.29;98691.31;10321314;28;20042;-74
2021/04/13 20:54:22;;;;;;;7.45;3.08;;;;;;;5.12;44.64;98699.00;10320698;28;20046;-74
2021/04/13 21:00:30;;;;;;;10.35;3.75;;;;;;;5.05;45.21;98699.66;10308869;28;20042;-73
2021/04/13 21:06:48;;;;;;;5.85;3.20;;;;;;;4.99;45.58;98701.78;10307213;28;20497;-75
2021/04/13 21:12:08;;;;;;;4.68;2.42;;;;;;;4.94;46.18;98705.41;10309302;28;20470;-75
2021/04/13 21:17:28;;;;;;;6.35;3.17;;;;;;;4.83;45.63;98690.53;10306866;28;20105;-74
2021/04/13 21:22:57;;;;;;;4.88;2.58;;;;;;;4.78;46.54;98688.59;10319850;28;20050;-74
2021/04/13 21:28:44;;;;;;;5.93;2.72;;;;;;;4.75;47.20;98695.22;10307117;28;20042;-75
2021/04/13 21:34:04;;;;;;;6.80;2.70;;;;;;;4.73;47.05;98688.69;10319607;28;20469;-75
2021/04/13 21:39:24;;;;;;;6.13;2.80;;;;;;;4.65;47.61;98691.38;10306021;28;20045;-75
2021/04/13 21:45:18;;;;;;;4.07;2.47;;;;;;;4.61;48.04;98685.41;10305613;28;20046;-74
2021/04/13 21:50:47;;;;;;;5.43;2.60;;;;;;;4.59;48.34;98696.25;10280782;28;20066;-75
2021/04/13 21:56:42;;;;;;;6.72;3.40;;;;;;;4.64;48.40;98692.66;10305685;28;20771;-76
2021/04/13 22:02:04;;;;;;;5.30;2.75;;;;;;;4.71;48.09;98694.78;10314639;28;20077;-76
2021/04/13 22:07:25;;;;;;;5.72;2.90;;;;;;;4.68;48.75;98698.59;10313677;28;20046;-75
2021/04/13 22:12:44;;;;;;;4.25;2.65;;;;;;;4.68;49.30;98690.31;10313723;28;20444;-75
2021/04/13 22:18:13;;;;;;;4.68;2.50;;;;;;;4.62;50.97;98695.19;10313266;28;20042;-75
2021/04/13 22:23:46;;;;;;;6.18;2.78;;;;;;;4.58;49.85;98681.69;10313225;28;20050;-77
2021/04/13 22:29:20;;;;;;;7.95;3.35;;;;;;;4.50;49.82;98683.59;10327672;28;20537;-75
2021/04/13 22:34:41;;;;;;;5.05;2.72;;;;;;;4.47;50.12;98690.19;10326579;28;20073;-75
2021/04/13 22:40:00;;;;;;;6.68;2.67;;;;;;;4.38;50.11;98687.84;10326072;28;20053;-75
2021/04/13 22:45:28;;;;;;;7.50;2.78;;;;;;;4.28;50.78;98682.00;10312466;28;20050;-75
2021/04/13 22:50:47;;;;;;;4.38;2.63;;;;;;;4.20;51.26;98680.38;10312530;28;20053;-75
2021/04/13 22:56:24;;;;;;;5.57;2.88;;;;;;;4.15;50.88;98683.97;10325371;28;20496;-76
2021/04/13 23:01:43;;;;;;;7.38;2.50;;;;;;;4.05;52.15;98680.88;10326278;28;20482;-75
2021/04/13 23:07:03;;;;;;;5.57;2.60;;;;;;;4.02;51.71;98673.66;10311160;28;20054;-76
2021/04/13 23:12:24;;;;;;;6.28;2.95;;;;;;;3.95;52.04;98683.28;10310263;28;20105;-76
2021/04/13 23:17:43;;;;;;;5.50;2.75;;;;;;;3.99;52.69;98675.47;10324315;28;20504;-75
2021/04/13 23:23:03;;;;;;;3.95;2.72;;;;;;;3.98;53.12;98665.69;10310898;28;20494;-76
2021/04/13 23:28:23;;;;;;;5.10;2.83;;;;;;;4.01;52.58;98666.63;10310525;28;20515;-76
2021/04/13 23:33:43;;;;;;;5.97;2.88;;;;;;;4.04;52.29;98662.81;10296974;28;20043;-75
2021/04/13 23:39:03;;;;;;;6.50;2.60;;;;;;;4.10;52.88;98655.19;10310387;28;20050;-77
2021/04/13 23:44:22;;;;;;;6.65;2.85;;;;;;;4.16;53.42;98655.09;10310183;28;20096;-76
2021/04/13 23:49:42;;;;;;;4.43;2.70;;;;;;;4.17;52.96;98649.03;10309803;28;20038;-75
2021/04/13 23:55:02;;;;;;;7.63;2.58;;;;;;;4.14;53.16;98639.00;10309425;28;20084;-75
